KONA/ONA METAR and TAF weather

Enter ICAO airport designator
Station Type Date Time Source
KONA METAR 2021/04/13 22:35 UTC NOAA

KONA 132235Z AUTO 30010KT 10SM BKN046 OVC050 03/M04 A3009 RMK AO2


Station Type Date Time Source
KONA Decoded METAR 2021/04/13 22:35 UTC NOAA

Winona, Winona Municipal Airport-Max Conrad Field, MN, United States (KONA) 44-05N 091-42W
Apr 13, 2021 - 06:35 PM EDT / 2021.04.13 2235 UTC
Wind: from the WNW (300 degrees) at 12 MPH (10 KT):0
Visibility: 10 mile(s):0
Sky conditions: overcast
Temperature: 37 F (3 C)
Dew Point: 24 F (-4 C)
Relative Humidity: 59%
Pressure (altimeter): 30.09 in. Hg (1018 hPa)
ob: KONA 132235Z AUTO 30010KT 10SM BKN046 OVC050 03/M04 A3009 RMK AO2
cycle: 22

Station Type Date Time Source
KONA TAF UTC NOAA

Error!

Example: see airport list